Suffield, Ohio
Current Conditions -  °F | °C
As of 8:54 AM on Thursday 29 Jan 2015 (Local Time) from KAKR Reporting Station
Unknown Precip Unknown Precip  
Wind Chill: 22°   Ceiling: 5000
Heat Index: 32°   Visibility: 9mi
Dew Point: 17°   Wind: 14mph
Humidity: 54%   Direction: 170°S
Pressure: 29.88"   Gusts: 23mph
Location:  41.0385°N, 81.341°W
Report Text: KAKR 291354Z AUTO 17012G20KT 9SM UP OVC050 00/M08 A2988 RMK AO2 UPB06E15B45 SLP130 P0000 T00001083 $
Loading
Personal Weather Stations






























Interactive Weather Map New forecast layout! Learn more

10-Day Weather Forecast

Advertisements
Track Severe Weather on mobile